Pagina principale
METAR-TAF:

METAR-TAF

Aeroporti :

Tarvisio, Italia

latitudine: 46-30N, longitudine: 013-35E, altezza: 777 m

Osservazione

Il bollettino è stato emesso 53 minuti fa, alle 13:55 UTC
Vento calmo
Temperature 8°C
Umidità 87%
Pressione 1001 hPa
Visibilità: 5000 m
Cielo coperto ad un'altezza di 2500 ft
pioggia debole

METAR: LIVO 271355Z 00000KT 5000 -RA OVC025 08/06 Q1001 RMK OVC VIS MIN 5000

Ora: 16:48 (14:48 UTC)


TAF: mancante

Osservazioni e previsioni meteorologiche di più di 4000 aeroporti (messaggi METAR e TAF).

Le stazioni disponibili sono rappresentate dai dischi gialli e rossi sulla carta.

Puntare il mouse per vedere il nome della stazione.

Clicca sopra per visualizzare le osservazioni e previsioni meteorologiche.

Per cambiare la mappa : fare clic sui pulsanti verdi con una croce nera per ingrandire, il pulsante verde con un trattino per diminuire, o sulla freccia verde per le mappe adiacenti.


METAR-TAF: